Terminal Aerodrome Forecast
Issued by NWS

Current Version | Previous Version | Text Only | Print | Product List | Glossary On
Versions: 1 2 3 4 5 6 7 8 9 10 11 12 13 14 15 16 17 18 19 20 21 22 23 24 25 26 27 28 29
000
FTUS45 KPSR 240800 AAA
TAFPHX
TAF AMD
KPHX 240850Z 2409/2506 07010KT P6SM VCSH SCT100 BKN150 OVC250
     FM241100 10010KT P6SM FEW100 SCT150 SCT250
      TEMPO 2417/2420 12014G24KT
     FM242200 15008KT P6SM FEW100 SCT150 SCT250
     FM250100 25008KT P6SM FEW100 SCT150 SCT250=

USA.gov is the U.S. government's official web portal to all federal, state and local government web resources and services.